createdAt,value
2022-12-11T00:00:28.088Z,-0.52
2022-12-11T00:01:28.080Z,-0.68
2022-12-11T00:02:28.110Z,-0.74
2022-12-11T00:03:28.109Z,-0.82
2022-12-11T00:04:28.084Z,-0.74
2022-12-11T00:05:28.053Z,-0.86
2022-12-11T00:06:28.041Z,-0.93
2022-12-11T00:07:28.038Z,-0.78
2022-12-11T00:08:28.061Z,-0.94
2022-12-11T00:09:28.041Z,-0.99
2022-12-11T00:10:28.015Z,-1.05
2022-12-11T00:11:28.007Z,-1.01
2022-12-11T00:12:27.999Z,-1.12
2022-12-11T00:13:27.992Z,-1.22
2022-12-11T00:14:28.007Z,-1.12
2022-12-11T00:15:27.976Z,-1.15
2022-12-11T00:16:28.012Z,-1.20
2022-12-11T00:17:27.959Z,-1.15
2022-12-11T00:18:27.957Z,-1.32
2022-12-11T00:19:27.970Z,-1.25
2022-12-11T00:20:27.939Z,-1.19
2022-12-11T00:21:27.927Z,-1.17
2022-12-11T00:22:27.925Z,-1.19
2022-12-11T00:23:27.923Z,-1.25
2022-12-11T00:24:27.937Z,-1.25
2022-12-11T00:25:27.899Z,-1.23
2022-12-11T00:26:27.894Z,-1.23
2022-12-11T00:27:27.892Z,-1.22
2022-12-11T00:28:27.873Z,-1.17
2022-12-11T00:29:27.950Z,-1.26
2022-12-11T00:30:27.864Z,-1.17
2022-12-11T00:31:27.951Z,-1.17
2022-12-11T00:32:28.566Z,-1.26
2022-12-11T00:33:28.840Z,-1.33
2022-12-11T00:34:27.860Z,-1.37
2022-12-11T00:35:27.823Z,-1.44
2022-12-11T00:36:27.821Z,-1.29
2022-12-11T00:37:27.847Z,-1.40
2022-12-11T00:38:27.804Z,-1.46
2022-12-11T00:39:27.816Z,-1.35
2022-12-11T00:40:27.791Z,-1.44
2022-12-11T00:41:27.781Z,-1.51
2022-12-11T00:42:27.775Z,-1.50
2022-12-11T00:43:27.770Z,-1.46
2022-12-11T00:44:27.786Z,-1.62
2022-12-11T00:45:27.751Z,-1.61
2022-12-11T00:46:27.750Z,-1.68
2022-12-11T00:47:27.744Z,-1.80
2022-12-11T00:48:27.733Z,-1.84
2022-12-11T00:49:27.753Z,-1.84
2022-12-11T00:50:27.711Z,-1.90
2022-12-11T00:51:27.705Z,-2.00
2022-12-11T00:52:27.695Z,-1.90
2022-12-11T00:53:27.697Z,-1.97
2022-12-11T00:54:27.709Z,-1.97
2022-12-11T00:55:27.673Z,-2.01
2022-12-11T00:56:27.668Z,-2.07
2022-12-11T00:57:27.659Z,-2.05
2022-12-11T00:58:27.652Z,-2.07
2022-12-11T00:59:27.672Z,-2.05
2022-12-11T01:00:27.639Z,-2.04
2022-12-11T01:01:27.682Z,-2.12
2022-12-11T01:02:27.665Z,-2.07
2022-12-11T01:03:27.621Z,-2.15
2022-12-11T01:04:27.636Z,-2.12
2022-12-11T01:05:27.610Z,-2.10
2022-12-11T01:06:27.606Z,-2.18
2022-12-11T01:07:27.590Z,-2.04
2022-12-11T01:08:27.622Z,-2.10
2022-12-11T01:09:27.608Z,-2.12
2022-12-11T01:10:27.677Z,-2.18
2022-12-11T01:11:27.567Z,-2.13
2022-12-11T01:12:27.560Z,-2.18
2022-12-11T01:13:27.557Z,-2.21
2022-12-11T01:14:27.576Z,-2.35
2022-12-11T01:15:27.540Z,-2.28
2022-12-11T01:16:27.552Z,-2.35
2022-12-11T01:17:27.528Z,-2.35
2022-12-11T01:18:27.520Z,-2.30
2022-12-11T01:19:27.513Z,-2.30
2022-12-11T01:20:27.528Z,-2.40
2022-12-11T01:21:27.507Z,-2.40
2022-12-11T01:22:27.494Z,-2.42
2022-12-11T01:23:27.483Z,-2.45
2022-12-11T01:24:27.509Z,-2.52
2022-12-11T01:25:27.470Z,-2.53
2022-12-11T01:26:27.464Z,-2.59
2022-12-11T01:27:27.457Z,-2.50
2022-12-11T01:28:27.448Z,-2.55
2022-12-11T01:29:27.443Z,-2.62
2022-12-11T01:30:27.511Z,-2.58
2022-12-11T01:31:27.434Z,-2.74
2022-12-11T01:32:27.419Z,-2.65
2022-12-11T01:33:27.414Z,-2.62
2022-12-11T01:34:27.407Z,-2.69
2022-12-11T01:35:27.419Z,-2.66
2022-12-11T01:36:27.386Z,-2.73
2022-12-11T01:37:27.385Z,-2.60
2022-12-11T01:38:27.377Z,-2.69
2022-12-11T01:39:27.364Z,-2.74
2022-12-11T01:40:27.397Z,-2.73
2022-12-11T01:41:27.354Z,-2.80
2022-12-11T01:42:27.346Z,-2.66
2022-12-11T01:43:27.336Z,-2.66
2022-12-11T01:44:27.328Z,-2.65
2022-12-11T01:45:27.573Z,-2.70
2022-12-11T01:46:27.344Z,-2.63
2022-12-11T01:47:27.307Z,-2.58
2022-12-11T01:48:27.302Z,-2.70
2022-12-11T01:49:27.298Z,-2.66
2022-12-11T01:50:27.312Z,-2.73
2022-12-11T01:51:27.276Z,-2.63
2022-12-11T01:52:27.270Z,-2.60
2022-12-11T01:53:27.262Z,-2.56
2022-12-11T01:54:27.252Z,-2.50
2022-12-11T01:55:27.269Z,-2.45
2022-12-11T01:56:27.239Z,-2.47
2022-12-11T01:57:27.231Z,-2.47
2022-12-11T01:58:27.223Z,-2.48
2022-12-11T01:59:27.207Z,-2.53
2022-12-11T02:00:28.224Z,-2.63
2022-12-11T02:01:27.231Z,-2.53
2022-12-11T02:02:27.226Z,-2.58
2022-12-11T02:03:27.189Z,-2.55
2022-12-11T02:04:27.172Z,-2.58
2022-12-11T02:05:27.191Z,-2.52
2022-12-11T02:06:27.160Z,-2.63
2022-12-11T02:07:27.159Z,-2.63
2022-12-11T02:08:27.162Z,-2.73
2022-12-11T02:09:27.138Z,-2.63
2022-12-11T02:10:27.154Z,-2.70
2022-12-11T02:11:27.120Z,-2.59
2022-12-11T02:12:27.117Z,-2.60
2022-12-11T02:13:27.102Z,-2.53
2022-12-11T02:14:27.105Z,-2.59
2022-12-11T02:15:27.130Z,-2.58
2022-12-11T02:16:27.117Z,-2.55
2022-12-11T02:17:27.080Z,-2.58
2022-12-11T02:18:27.093Z,-2.52
2022-12-11T02:19:27.065Z,-2.59
2022-12-11T02:20:27.090Z,-2.58
2022-12-11T02:21:27.051Z,-2.56
2022-12-11T02:22:27.041Z,-2.55
2022-12-11T02:23:27.031Z,-2.53
2022-12-11T02:24:27.030Z,-2.45
2022-12-11T02:25:27.021Z,-2.42
2022-12-11T02:26:27.039Z,-2.52
2022-12-11T02:27:27.006Z,-2.41
2022-12-11T02:28:26.999Z,-2.42
2022-12-11T02:29:26.990Z,-2.45
2022-12-11T02:30:26.986Z,-2.35
2022-12-11T02:31:28.046Z,-2.52
2022-12-11T02:32:26.971Z,-2.42
2022-12-11T02:33:26.963Z,-2.37
2022-12-11T02:34:26.957Z,-2.48
2022-12-11T02:35:26.946Z,-2.40
2022-12-11T02:36:26.967Z,-2.55
2022-12-11T02:37:26.933Z,-2.45
2022-12-11T02:38:26.927Z,-2.47
2022-12-11T02:39:26.929Z,-2.53
2022-12-11T02:40:26.912Z,-2.45
2022-12-11T02:41:26.929Z,-2.47
2022-12-11T02:42:26.900Z,-2.45
2022-12-11T02:43:26.891Z,-2.44
2022-12-11T02:44:26.882Z,-2.44
2022-12-11T02:45:26.871Z,-2.38
2022-12-11T02:46:26.893Z,-2.40
2022-12-11T02:47:26.861Z,-2.35
2022-12-11T02:48:26.855Z,-2.32
2022-12-11T02:49:26.847Z,-2.28
2022-12-11T02:50:26.845Z,-2.23
2022-12-11T02:51:26.858Z,-2.26
2022-12-11T02:52:26.824Z,-2.15
2022-12-11T02:53:26.820Z,-2.12
2022-12-11T02:54:26.812Z,-2.08
2022-12-11T02:55:26.801Z,-2.10
2022-12-11T02:56:26.826Z,-2.07
2022-12-11T02:57:26.794Z,-2.08
2022-12-11T02:58:26.782Z,-2.05
2022-12-11T02:59:26.778Z,-1.98
2022-12-11T03:00:26.775Z,-1.95
2022-12-11T03:01:26.839Z,-1.97
2022-12-11T03:02:26.783Z,-1.94
2022-12-11T03:03:26.751Z,-1.84
2022-12-11T03:04:26.741Z,-1.86
2022-12-11T03:05:26.734Z,-1.86
2022-12-11T03:06:26.746Z,-1.86
2022-12-11T03:07:26.717Z,-1.83
2022-12-11T03:08:26.771Z,-1.77
2022-12-11T03:09:26.705Z,-1.82
2022-12-11T03:10:27.694Z,-1.86
2022-12-11T03:11:26.710Z,-1.71
2022-12-11T03:12:26.680Z,-1.79
2022-12-11T03:13:26.668Z,-1.74
2022-12-11T03:14:26.659Z,-1.62
2022-12-11T03:15:26.656Z,-1.72
2022-12-11T03:16:26.736Z,-1.71
2022-12-11T03:17:26.641Z,-1.74
2022-12-11T03:18:26.636Z,-1.71
2022-12-11T03:19:26.627Z,-1.76
2022-12-11T03:20:26.617Z,-1.76
2022-12-11T03:21:26.643Z,-1.72
2022-12-11T03:22:26.605Z,-1.71
2022-12-11T03:23:26.595Z,-1.59
2022-12-11T03:24:26.589Z,-1.65
2022-12-11T03:25:26.578Z,-1.54
2022-12-11T03:26:26.602Z,-1.65
2022-12-11T03:27:26.570Z,-1.56
2022-12-11T03:28:26.562Z,-1.66
2022-12-11T03:29:26.574Z,-1.59
2022-12-11T03:30:26.603Z,-1.56
2022-12-11T03:31:26.571Z,-1.58
2022-12-11T03:32:26.532Z,-1.65
2022-12-11T03:33:26.526Z,-1.48
2022-12-11T03:34:26.517Z,-1.54
2022-12-11T03:35:26.509Z,-1.68
2022-12-11T03:36:26.502Z,-1.50
2022-12-11T03:37:26.519Z,-1.58
2022-12-11T03:38:26.487Z,-1.59
2022-12-11T03:39:26.478Z,-1.44
2022-12-11T03:40:26.471Z,-1.47
2022-12-11T03:41:26.492Z,-1.51
2022-12-11T03:42:26.460Z,-1.41
2022-12-11T03:43:26.455Z,-1.51
2022-12-11T03:44:26.445Z,-1.46
2022-12-11T03:45:26.441Z,-1.47
2022-12-11T03:46:26.467Z,-1.48
2022-12-11T03:47:26.448Z,-1.46
2022-12-11T03:48:26.419Z,-1.46
2022-12-11T03:49:26.407Z,-1.44
2022-12-11T03:50:26.408Z,-1.44
2022-12-11T03:51:26.398Z,-1.44
2022-12-11T03:52:26.417Z,-1.37
2022-12-11T03:53:26.381Z,-1.38
2022-12-11T03:54:26.373Z,-1.46
2022-12-11T03:55:26.364Z,-1.44
2022-12-11T03:56:26.360Z,-1.41
2022-12-11T03:57:26.376Z,-1.44
2022-12-11T03:58:26.343Z,-1.37
2022-12-11T03:59:26.335Z,-1.43
2022-12-11T04:00:26.327Z,-1.32
2022-12-11T04:01:26.362Z,-1.35
2022-12-11T04:02:26.339Z,-1.35
2022-12-11T04:03:26.301Z,-1.38
2022-12-11T04:04:26.337Z,-1.37
2022-12-11T04:05:26.289Z,-1.23
2022-12-11T04:06:26.279Z,-1.30
2022-12-11T04:07:26.306Z,-1.35
2022-12-11T04:08:26.298Z,-1.26
2022-12-11T04:09:26.260Z,-1.27
2022-12-11T04:10:26.252Z,-1.27
2022-12-11T04:11:26.249Z,-1.33
2022-12-11T04:12:26.260Z,-1.23
2022-12-11T04:13:26.235Z,-1.35
2022-12-11T04:14:26.221Z,-1.20
2022-12-11T04:15:26.217Z,-1.23
2022-12-11T04:16:26.208Z,-1.32
2022-12-11T04:17:26.227Z,-1.12
2022-12-11T04:18:26.189Z,-1.23
2022-12-11T04:19:26.181Z,-1.22
2022-12-11T04:20:26.176Z,-1.23
2022-12-11T04:21:26.171Z,-1.14
2022-12-11T04:22:26.164Z,-1.08
2022-12-11T04:23:26.183Z,-1.25
2022-12-11T04:24:26.152Z,-1.20
2022-12-11T04:25:26.141Z,-1.12
2022-12-11T04:26:26.138Z,-1.11
2022-12-11T04:27:26.126Z,-1.12
2022-12-11T04:28:26.141Z,-1.01
2022-12-11T04:29:26.113Z,-1.02
2022-12-11T04:30:30.802Z,-1.08
2022-12-11T04:31:28.140Z,-1.14
2022-12-11T04:32:26.089Z,-0.97
2022-12-11T04:33:26.106Z,-1.11
2022-12-11T04:34:26.075Z,-0.91
2022-12-11T04:35:26.073Z,-1.04
2022-12-11T04:36:26.060Z,-0.96
2022-12-11T04:37:26.054Z,-1.02
2022-12-11T04:38:26.072Z,-1.01
2022-12-11T04:39:26.036Z,-1.02
2022-12-11T04:40:26.035Z,-1.05
2022-12-11T04:41:26.022Z,-1.02
2022-12-11T04:42:26.012Z,-0.93
2022-12-11T04:43:26.034Z,-0.93
2022-12-11T04:44:26.002Z,-0.89
2022-12-11T04:45:25.996Z,-0.99
2022-12-11T04:46:26.050Z,-0.86
2022-12-11T04:47:25.984Z,-0.89
2022-12-11T04:48:25.996Z,-0.94
2022-12-11T04:49:25.968Z,-0.91
2022-12-11T04:50:25.959Z,-0.90
2022-12-11T04:51:25.950Z,-0.90
2022-12-11T04:52:25.943Z,-0.82
2022-12-11T04:53:25.959Z,-0.82
2022-12-11T04:54:25.927Z,-0.90
2022-12-11T04:55:25.919Z,-0.80
2022-12-11T04:56:25.954Z,-0.83
2022-12-11T04:57:25.908Z,-0.74
2022-12-11T04:58:25.922Z,-0.85
2022-12-11T04:59:25.893Z,-0.77
2022-12-11T05:00:25.892Z,-0.90
2022-12-11T05:01:25.932Z,-0.93
2022-12-11T05:02:25.897Z,-1.01
2022-12-11T05:03:25.889Z,-0.86
2022-12-11T05:04:25.854Z,-0.86
2022-12-11T05:05:25.852Z,-0.85
2022-12-11T05:06:25.843Z,-0.85
2022-12-11T05:07:25.842Z,-0.75
2022-12-11T05:08:25.896Z,-0.82
2022-12-11T05:09:25.820Z,-0.74
2022-12-11T05:10:25.814Z,-0.82
2022-12-11T05:11:25.803Z,-0.82
2022-12-11T05:12:25.803Z,-0.77
2022-12-11T05:13:25.812Z,-0.74
2022-12-11T05:14:25.776Z,-0.74
2022-12-11T05:15:25.771Z,-0.72
2022-12-11T05:16:25.827Z,-0.80
2022-12-11T05:17:25.747Z,-0.78
2022-12-11T05:18:26.780Z,-0.65
2022-12-11T05:19:25.740Z,-0.70
2022-12-11T05:20:25.735Z,-0.80
2022-12-11T05:21:29.055Z,-0.77
2022-12-11T05:22:26.715Z,-0.82
2022-12-11T05:23:25.733Z,-0.77
2022-12-11T05:24:25.705Z,-0.82
2022-12-11T05:25:25.697Z,-0.75
2022-12-11T05:26:25.689Z,-0.75
2022-12-11T05:27:25.682Z,-0.77
2022-12-11T05:28:25.702Z,-0.71
2022-12-11T05:29:25.664Z,-0.72
2022-12-11T05:30:25.657Z,-0.75
2022-12-11T05:31:25.712Z,-0.82
2022-12-11T05:32:25.644Z,-0.70
2022-12-11T05:33:25.661Z,-0.70
2022-12-11T05:34:25.629Z,-0.68
2022-12-11T05:35:25.623Z,-0.71
2022-12-11T05:36:25.613Z,-0.64
2022-12-11T05:37:25.605Z,-0.68
2022-12-11T05:38:25.626Z,-0.68
2022-12-11T05:39:25.590Z,-0.68
2022-12-11T05:40:26.584Z,-0.65
2022-12-11T05:41:25.579Z,-0.68
2022-12-11T05:42:28.955Z,-0.77
2022-12-11T05:43:26.583Z,-0.74
2022-12-11T05:44:25.553Z,-0.72
2022-12-11T05:45:25.546Z,-0.67
2022-12-11T05:46:25.621Z,-0.67
2022-12-11T05:47:25.538Z,-0.70
2022-12-11T05:48:25.627Z,-0.70
2022-12-11T05:49:30.703Z,-0.68
2022-12-11T05:50:27.509Z,-0.65
2022-12-11T05:51:25.507Z,-0.64
2022-12-11T05:52:25.508Z,-0.57
2022-12-11T05:53:25.522Z,-0.67
2022-12-11T05:54:25.484Z,-0.70
2022-12-11T05:55:25.471Z,-0.74
2022-12-11T05:56:25.471Z,-0.68
2022-12-11T05:57:25.465Z,-0.65
2022-12-11T05:58:25.460Z,-0.65
2022-12-11T05:59:25.472Z,-0.68
2022-12-11T06:00:25.436Z,-0.65
2022-12-11T06:01:25.434Z,-0.57
2022-12-11T06:02:25.516Z,-0.52
2022-12-11T06:03:25.418Z,-0.57
2022-12-11T06:04:25.436Z,-0.53
2022-12-11T06:05:25.400Z,-0.57
2022-12-11T06:06:25.396Z,-0.56
2022-12-11T06:07:25.384Z,-0.61
2022-12-11T06:08:25.400Z,-0.57
2022-12-11T06:09:25.395Z,-0.59
2022-12-11T06:10:25.367Z,-0.47
2022-12-11T06:11:25.359Z,-0.64
2022-12-11T06:12:25.383Z,-0.53
2022-12-11T06:13:25.341Z,-0.44
2022-12-11T06:14:25.358Z,-0.46
2022-12-11T06:15:26.316Z,-0.47
2022-12-11T06:16:26.373Z,-0.46
2022-12-11T06:17:25.307Z,-0.46
2022-12-11T06:18:25.302Z,-0.59
2022-12-11T06:19:25.333Z,-0.61
2022-12-11T06:20:25.294Z,-0.62
2022-12-11T06:21:25.282Z,-0.62
2022-12-11T06:22:25.276Z,-0.68
2022-12-11T06:23:25.272Z,-0.72
2022-12-11T06:24:25.287Z,-0.67
2022-12-11T06:25:25.258Z,-0.65
2022-12-11T06:26:25.240Z,-0.70
2022-12-11T06:27:25.237Z,-0.65
2022-12-11T06:28:25.229Z,-0.74
2022-12-11T06:29:25.253Z,-0.62
2022-12-11T06:30:37.668Z,-0.75
2022-12-11T06:31:26.438Z,-0.74
2022-12-11T06:32:25.204Z,-0.80
2022-12-11T06:33:25.198Z,-0.75
2022-12-11T06:34:25.209Z,-0.77
2022-12-11T06:35:25.178Z,-0.77
2022-12-11T06:36:25.177Z,-0.75
2022-12-11T06:37:25.162Z,-0.77
2022-12-11T06:38:25.184Z,-0.75
2022-12-11T06:39:25.172Z,-0.72
2022-12-11T06:40:25.139Z,-0.70
2022-12-11T06:41:25.138Z,-0.68
2022-12-11T06:42:25.126Z,-0.68
2022-12-11T06:43:25.118Z,-0.62
2022-12-11T06:44:25.135Z,-0.61
2022-12-11T06:45:25.176Z,-0.67
2022-12-11T06:46:25.133Z,-0.65
2022-12-11T06:47:25.093Z,-0.65
2022-12-11T06:48:25.079Z,-0.67
2022-12-11T06:49:25.098Z,-0.65
2022-12-11T06:50:25.064Z,-0.68
2022-12-11T06:51:25.054Z,-0.70
2022-12-11T06:52:25.044Z,-0.62
2022-12-11T06:53:25.041Z,-0.62
2022-12-11T06:54:25.054Z,-0.65
2022-12-11T06:55:25.022Z,-0.64
2022-12-11T06:56:25.020Z,-0.64
2022-12-11T06:57:25.011Z,-0.71
2022-12-11T06:58:24.996Z,-0.67
2022-12-11T06:59:25.016Z,-0.62
2022-12-11T07:00:24.985Z,-0.57
2022-12-11T07:01:25.024Z,-0.68
2022-12-11T07:02:24.999Z,-0.77
2022-12-11T07:03:25.960Z,-0.70
2022-12-11T07:04:24.980Z,-0.62
2022-12-11T07:05:24.943Z,-0.68
2022-12-11T07:06:24.937Z,-0.64
2022-12-11T07:07:24.931Z,-0.68
2022-12-11T07:08:24.984Z,-0.70
2022-12-11T07:09:24.940Z,-0.70
2022-12-11T07:10:24.911Z,-0.72
2022-12-11T07:11:24.900Z,-0.72
2022-12-11T07:12:24.901Z,-0.72
2022-12-11T07:13:24.890Z,-0.65
2022-12-11T07:14:24.901Z,-0.68
2022-12-11T07:15:24.876Z,-0.71
2022-12-11T07:16:24.904Z,-0.64
2022-12-11T07:17:24.856Z,-0.62
2022-12-11T07:18:24.852Z,-0.52
2022-12-11T07:19:24.863Z,-0.56
2022-12-11T07:20:24.834Z,-0.50
2022-12-11T07:21:24.826Z,-0.49
2022-12-11T07:22:24.821Z,-0.46
2022-12-11T07:23:24.809Z,-0.44
2022-12-11T07:24:24.826Z,-0.50
2022-12-11T07:25:24.792Z,-0.57
2022-12-11T07:26:24.786Z,-0.49
2022-12-11T07:27:24.781Z,-0.50
2022-12-11T07:28:24.773Z,-0.49
2022-12-11T07:29:24.795Z,-0.50
2022-12-11T07:30:24.757Z,-0.47
2022-12-11T07:31:24.845Z,-0.47
2022-12-11T07:32:24.874Z,-0.39
2022-12-11T07:33:24.734Z,-0.47
2022-12-11T07:34:24.754Z,-0.41
2022-12-11T07:35:24.716Z,-0.38
2022-12-11T07:36:24.716Z,-0.46
2022-12-11T07:37:24.707Z,-0.41
2022-12-11T07:38:24.699Z,-0.43
2022-12-11T07:39:24.687Z,-0.39
2022-12-11T07:40:24.705Z,-0.43
2022-12-11T07:41:24.669Z,-0.41
2022-12-11T07:42:24.667Z,-0.34
2022-12-11T07:43:24.677Z,-0.39
2022-12-11T07:44:24.648Z,-0.36
2022-12-11T07:45:24.777Z,-0.28
2022-12-11T07:46:24.632Z,-0.38
2022-12-11T07:47:24.627Z,-0.35
2022-12-11T07:48:24.657Z,-0.29
2022-12-11T07:49:24.615Z,-0.34
2022-12-11T07:50:24.633Z,-0.26
2022-12-11T07:51:24.591Z,-0.21
2022-12-11T07:52:24.585Z,-0.28
2022-12-11T07:53:24.577Z,-0.35
2022-12-11T07:54:24.571Z,-0.31
2022-12-11T07:55:24.589Z,-0.26
2022-12-11T07:56:24.556Z,-0.29
2022-12-11T07:57:24.550Z,-0.17
2022-12-11T07:58:24.544Z,-0.28
2022-12-11T07:59:24.537Z,-0.28
2022-12-11T08:00:24.555Z,-0.29
2022-12-11T08:01:24.564Z,-0.25
2022-12-11T08:02:24.568Z,-0.25
2022-12-11T08:03:24.506Z,-0.29
2022-12-11T08:04:24.509Z,-0.39
2022-12-11T08:05:24.515Z,-0.25
2022-12-11T08:06:24.490Z,-0.31
2022-12-11T08:07:24.484Z,-0.18
2022-12-11T08:08:24.506Z,-0.31
2022-12-11T08:09:24.463Z,-0.29
2022-12-11T08:10:24.476Z,-0.18
2022-12-11T08:11:24.449Z,-0.26
2022-12-11T08:12:24.442Z,-0.25
2022-12-11T08:13:24.435Z,-0.17
2022-12-11T08:14:24.425Z,-0.23
2022-12-11T08:15:24.446Z,-0.29
2022-12-11T08:16:24.448Z,-0.21
2022-12-11T08:17:29.463Z,-0.13
2022-12-11T08:18:26.397Z,-0.20
2022-12-11T08:19:24.390Z,-0.18
2022-12-11T08:20:24.429Z,-0.13
2022-12-11T08:21:24.377Z,-0.20
2022-12-11T08:22:24.373Z,-0.14
2022-12-11T08:23:24.375Z,-0.21
2022-12-11T08:24:24.364Z,-0.17
2022-12-11T08:25:24.373Z,-0.10
2022-12-11T08:26:24.339Z,-0.02
2022-12-11T08:27:24.334Z,0.04
2022-12-11T08:28:24.850Z,-0.11
2022-12-11T08:29:24.322Z,-0.03
2022-12-11T08:30:24.384Z,0.03
2022-12-11T08:31:24.304Z,-0.07
2022-12-11T08:32:24.297Z,0.16
2022-12-11T08:33:24.291Z,0.18
2022-12-11T08:34:24.282Z,0.15
2022-12-11T08:35:24.305Z,0.21
2022-12-11T08:36:24.267Z,0.23
2022-12-11T08:37:24.261Z,0.15
2022-12-11T08:38:25.747Z,0.10
2022-12-11T08:39:25.251Z,0.22
2022-12-11T08:40:24.268Z,0.25
2022-12-11T08:41:24.224Z,0.32
2022-12-11T08:42:25.229Z,0.32
2022-12-11T08:43:24.221Z,0.29
2022-12-11T08:44:24.216Z,0.25
2022-12-11T08:45:24.227Z,0.19
2022-12-11T08:46:24.259Z,0.23
2022-12-11T08:47:24.197Z,0.26
2022-12-11T08:48:24.179Z,0.29
2022-12-11T08:49:24.176Z,0.28
2022-12-11T08:50:24.188Z,0.25
2022-12-11T08:51:24.155Z,0.18
2022-12-11T08:52:24.150Z,0.22
2022-12-11T08:53:24.149Z,0.22
2022-12-11T08:54:24.138Z,0.25
2022-12-11T08:55:24.154Z,0.29
2022-12-11T08:56:24.115Z,0.25
2022-12-11T08:57:25.119Z,0.29
2022-12-11T08:58:24.111Z,0.28
2022-12-11T08:59:24.109Z,0.39
2022-12-11T09:00:24.133Z,0.31
2022-12-11T09:01:24.120Z,0.39
2022-12-11T09:02:24.129Z,0.40
2022-12-11T09:03:24.071Z,0.49
2022-12-11T09:04:24.073Z,0.39
2022-12-11T09:05:24.085Z,0.40
2022-12-11T09:06:24.047Z,0.34
2022-12-11T09:07:24.048Z,0.34
2022-12-11T09:08:24.084Z,0.39
2022-12-11T09:09:24.029Z,0.39
2022-12-11T09:10:24.046Z,0.40
2022-12-11T09:11:24.019Z,0.52
2022-12-11T09:12:24.007Z,0.50
2022-12-11T09:13:24.003Z,0.49
2022-12-11T09:14:23.989Z,0.46
2022-12-11T09:15:24.010Z,0.44
2022-12-11T09:16:23.979Z,0.47
2022-12-11T09:17:23.970Z,0.46
2022-12-11T09:18:23.965Z,0.36
2022-12-11T09:19:26.674Z,0.46
2022-12-11T09:20:25.967Z,0.39
2022-12-11T09:21:23.944Z,0.52
2022-12-11T09:22:23.934Z,0.44
2022-12-11T09:23:23.931Z,0.46
2022-12-11T09:24:23.916Z,0.43
2022-12-11T09:25:23.939Z,0.39
2022-12-11T09:26:23.907Z,0.44
2022-12-11T09:27:23.899Z,0.39
2022-12-11T09:28:23.891Z,0.37
2022-12-11T09:29:23.880Z,0.43
2022-12-11T09:30:23.903Z,0.36
2022-12-11T09:31:23.925Z,0.36
2022-12-11T09:32:23.860Z,0.36
2022-12-11T09:33:23.856Z,0.31
2022-12-11T09:34:29.050Z,0.32
2022-12-11T09:35:25.866Z,0.46
2022-12-11T09:36:23.835Z,0.36
2022-12-11T09:37:23.820Z,0.25
2022-12-11T09:38:23.821Z,0.29
2022-12-11T09:39:23.810Z,0.31
2022-12-11T09:40:23.824Z,0.28
2022-12-11T09:41:23.792Z,0.28
2022-12-11T09:42:23.793Z,0.39
2022-12-11T09:43:23.775Z,0.40
2022-12-11T09:44:23.771Z,0.37
2022-12-11T09:45:23.789Z,0.41
2022-12-11T09:46:24.871Z,0.37
2022-12-11T09:47:24.750Z,0.26
2022-12-11T09:48:23.743Z,0.31
2022-12-11T09:49:24.743Z,0.39
2022-12-11T09:50:23.760Z,0.29
2022-12-11T09:51:23.722Z,0.40
2022-12-11T09:52:23.740Z,0.29
2022-12-11T09:53:23.706Z,0.40
2022-12-11T09:54:23.700Z,0.49
2022-12-11T09:55:23.717Z,0.31
2022-12-11T09:56:23.686Z,0.43
2022-12-11T09:57:23.678Z,0.29
2022-12-11T09:58:23.667Z,0.41
2022-12-11T09:59:23.661Z,0.36
2022-12-11T10:00:23.678Z,0.31
2022-12-11T10:01:23.673Z,0.22
2022-12-11T10:02:23.661Z,0.23
2022-12-11T10:03:23.631Z,0.28
2022-12-11T10:04:23.626Z,0.36
2022-12-11T10:05:23.639Z,0.31
2022-12-11T10:06:23.614Z,0.40
2022-12-11T10:07:23.602Z,0.34
2022-12-11T10:08:23.683Z,0.26
2022-12-11T10:09:23.591Z,0.22
2022-12-11T10:10:23.612Z,0.22
2022-12-11T10:11:23.572Z,0.22
2022-12-11T10:12:23.567Z,0.25
2022-12-11T10:13:23.568Z,0.16
2022-12-11T10:14:23.592Z,0.18
2022-12-11T10:15:23.582Z,0.25
2022-12-11T10:16:23.548Z,0.15
2022-12-11T10:17:23.545Z,0.21
2022-12-11T10:18:23.531Z,0.12
2022-12-11T10:19:23.521Z,0.12
2022-12-11T10:20:23.517Z,0.16
2022-12-11T10:21:23.533Z,0.23
2022-12-11T10:22:23.506Z,0.21
2022-12-11T10:23:23.497Z,0.28
2022-12-11T10:24:48.882Z,0.19
2022-12-11T10:25:25.775Z,0.26
2022-12-11T10:26:23.474Z,0.26
2022-12-11T10:27:23.468Z,0.32
2022-12-11T10:28:23.458Z,0.41
2022-12-11T10:29:23.448Z,0.43
2022-12-11T10:30:23.453Z,0.49
2022-12-11T10:31:23.497Z,0.41
2022-12-11T10:32:23.426Z,0.47
2022-12-11T10:33:23.421Z,0.46
2022-12-11T10:34:23.410Z,0.40
2022-12-11T10:35:23.407Z,0.49
2022-12-11T10:36:23.421Z,0.58
2022-12-11T10:37:23.392Z,0.62
2022-12-11T10:38:23.384Z,0.55
2022-12-11T10:39:23.377Z,0.73
2022-12-11T10:40:23.366Z,0.68
2022-12-11T10:41:23.387Z,0.74
2022-12-11T10:42:23.353Z,0.59
2022-12-11T10:43:23.346Z,0.58
2022-12-11T10:44:23.339Z,0.69
2022-12-11T10:45:24.337Z,0.69
2022-12-11T10:46:23.421Z,0.60
2022-12-11T10:47:23.320Z,0.68
2022-12-11T10:48:23.314Z,0.74
2022-12-11T10:49:23.306Z,0.66
2022-12-11T10:50:23.295Z,0.66
2022-12-11T10:51:23.310Z,0.62
2022-12-11T10:52:23.283Z,0.60
2022-12-11T10:53:23.267Z,0.68
2022-12-11T10:54:23.259Z,0.77
2022-12-11T10:55:23.257Z,0.68
2022-12-11T10:56:23.271Z,0.77
2022-12-11T10:57:23.238Z,0.68
2022-12-11T10:58:23.230Z,0.59
2022-12-11T10:59:24.192Z,0.52
2022-12-11T11:00:24.218Z,0.62
2022-12-11T11:01:23.283Z,0.66
2022-12-11T11:02:23.302Z,0.59
2022-12-11T11:03:23.196Z,0.62
2022-12-11T11:04:23.189Z,0.69
2022-12-11T11:05:23.173Z,0.70
2022-12-11T11:06:23.194Z,0.56
2022-12-11T11:07:23.166Z,0.52
2022-12-11T11:08:23.262Z,0.43
2022-12-11T11:09:23.147Z,0.46
2022-12-11T11:10:23.134Z,0.60
2022-12-11T11:11:23.144Z,0.60
2022-12-11T11:12:24.124Z,0.52
2022-12-11T11:13:23.119Z,0.62
2022-12-11T11:14:23.107Z,0.59
2022-12-11T11:15:23.097Z,0.68
2022-12-11T11:16:23.159Z,0.74
2022-12-11T11:17:23.079Z,0.73
2022-12-11T11:18:23.074Z,0.70
2022-12-11T11:19:23.067Z,0.78
2022-12-11T11:20:23.060Z,0.76
2022-12-11T11:21:23.080Z,0.74
2022-12-11T11:22:23.044Z,0.70
2022-12-11T11:23:23.035Z,0.70
2022-12-11T11:24:23.022Z,0.76
2022-12-11T11:25:23.022Z,0.77
2022-12-11T11:26:23.130Z,0.77
2022-12-11T11:27:23.031Z,0.80
2022-12-11T11:28:22.995Z,0.91
2022-12-11T11:29:23.001Z,0.94
2022-12-11T11:30:22.986Z,0.99
2022-12-11T11:31:23.051Z,0.88
2022-12-11T11:32:22.995Z,0.92
2022-12-11T11:33:22.989Z,1.01
2022-12-11T11:34:22.962Z,0.96
2022-12-11T11:35:22.965Z,0.94
2022-12-11T11:36:22.954Z,0.88
2022-12-11T11:37:22.970Z,0.98
2022-12-11T11:38:22.922Z,0.98
2022-12-11T11:39:22.911Z,0.98
2022-12-11T11:40:22.905Z,0.94
2022-12-11T11:41:22.897Z,0.99
2022-12-11T11:42:22.918Z,1.01
2022-12-11T11:43:22.884Z,0.88
2022-12-11T11:44:22.879Z,0.86
2022-12-11T11:45:22.868Z,0.80
2022-12-11T11:46:22.891Z,0.73
2022-12-11T11:47:22.874Z,0.76
2022-12-11T11:48:22.844Z,0.74
2022-12-11T11:49:22.835Z,0.56
2022-12-11T11:50:22.827Z,0.56
2022-12-11T11:51:22.816Z,0.68
2022-12-11T11:52:23.841Z,0.58
2022-12-11T11:53:22.812Z,0.59
2022-12-11T11:54:22.802Z,0.56
2022-12-11T11:55:23.126Z,0.56
2022-12-11T11:56:22.785Z,0.62
2022-12-11T11:57:22.889Z,0.59
2022-12-11T11:58:22.775Z,0.69
2022-12-11T11:59:22.765Z,0.68
2022-12-11T12:00:22.756Z,0.74
2022-12-11T12:01:22.747Z,0.83
2022-12-11T12:02:22.800Z,0.73
2022-12-11T12:03:22.732Z,0.76
2022-12-11T12:04:22.732Z,0.74
2022-12-11T12:05:22.724Z,0.74
2022-12-11T12:06:22.714Z,0.81
2022-12-11T12:07:22.730Z,0.87
2022-12-11T12:08:22.805Z,0.88
2022-12-11T12:09:22.707Z,0.91
2022-12-11T12:10:22.678Z,0.94
2022-12-11T12:11:22.677Z,0.96
2022-12-11T12:12:26.590Z,0.96
2022-12-11T12:13:48.769Z,0.92
2022-12-11T12:14:51.963Z,0.92
2022-12-11T12:15:24.641Z,0.88
2022-12-11T12:16:51.524Z,0.95
2022-12-11T12:17:24.699Z,0.91
2022-12-11T12:18:22.621Z,0.96
2022-12-11T12:19:22.597Z,0.78
2022-12-11T12:20:23.604Z,0.78
2022-12-11T12:21:22.595Z,0.69
2022-12-11T12:22:22.623Z,0.68
2022-12-11T12:23:22.580Z,0.49
2022-12-11T12:24:22.571Z,0.41
2022-12-11T12:25:22.565Z,0.25
2022-12-11T12:26:22.568Z,0.23
2022-12-11T12:27:51.106Z,0.10
2022-12-11T12:28:24.549Z,-0.14
2022-12-11T12:29:22.534Z,-0.15
2022-12-11T12:30:23.865Z,-0.18
2022-12-11T12:31:23.587Z,-0.11
2022-12-11T12:32:22.507Z,-0.20
2022-12-11T12:33:22.527Z,-0.14
2022-12-11T12:34:22.491Z,-0.11
2022-12-11T12:35:22.484Z,-0.11
2022-12-11T12:36:22.478Z,-0.11
2022-12-11T12:37:22.469Z,-0.03
2022-12-11T12:38:22.489Z,-0.06
2022-12-11T12:39:22.455Z,0.04
2022-12-11T12:40:22.448Z,-0.02
2022-12-11T12:41:22.439Z,0.05
2022-12-11T12:42:22.430Z,0.04
2022-12-11T12:43:22.443Z,0.15
2022-12-11T12:44:22.455Z,0.04
2022-12-11T12:45:22.413Z,0.12
2022-12-11T12:46:22.400Z,0.19
2022-12-11T12:47:22.395Z,0.12
2022-12-11T12:48:22.411Z,0.19
2022-12-11T12:49:22.381Z,0.19
2022-12-11T12:50:22.367Z,0.29
2022-12-11T12:51:22.361Z,0.28
2022-12-11T12:52:22.357Z,0.39
2022-12-11T12:53:22.372Z,0.26
2022-12-11T12:54:22.341Z,0.34
2022-12-11T12:55:22.348Z,0.31
2022-12-11T12:56:22.343Z,0.37
2022-12-11T12:57:22.358Z,0.39
2022-12-11T12:58:22.337Z,0.37
2022-12-11T12:59:22.307Z,0.43
2022-12-11T13:00:22.299Z,0.50
2022-12-11T13:01:22.328Z,0.43